createdAt,value
2022-08-24T00:02:24.590Z,100.00
2022-08-24T00:05:34.052Z,100.00
2022-08-24T00:08:41.640Z,100.00
2022-08-24T00:11:48.245Z,100.00
2022-08-24T00:14:55.883Z,100.00
2022-08-24T00:18:02.301Z,100.00
2022-08-24T00:21:12.784Z,100.00
2022-08-24T00:24:19.831Z,100.00
2022-08-24T00:27:26.716Z,100.00
2022-08-24T00:30:34.304Z,100.00
2022-08-24T00:33:41.127Z,100.00
2022-08-24T00:36:49.257Z,100.00
2022-08-24T00:39:56.241Z,100.00
2022-08-24T00:43:04.743Z,100.00
2022-08-24T00:46:15.978Z,100.00
2022-08-24T00:49:28.754Z,100.00
2022-08-24T00:52:40.442Z,100.00
2022-08-24T00:55:50.608Z,100.00
2022-08-24T00:59:02.113Z,100.00
2022-08-24T01:02:15.247Z,100.00
2022-08-24T01:05:22.579Z,100.00
2022-08-24T01:08:30.544Z,100.00
2022-08-24T01:11:37.075Z,100.00
2022-08-24T01:14:43.572Z,100.00
2022-08-24T01:18:07.837Z,100.00
2022-08-24T01:21:18.759Z,100.00
2022-08-24T01:24:26.462Z,100.00
2022-08-24T01:27:33.604Z,100.00
2022-08-24T01:30:39.720Z,100.00
2022-08-24T01:33:49.749Z,100.00
2022-08-24T01:36:58.319Z,100.00
2022-08-24T01:40:09.016Z,100.00
2022-08-24T01:43:16.458Z,100.00
2022-08-24T01:46:22.997Z,100.00
2022-08-24T01:49:31.710Z,100.00
2022-08-24T01:53:03.785Z,100.00
2022-08-24T01:56:10.466Z,100.00
2022-08-24T01:59:16.481Z,100.00
2022-08-24T02:02:26.979Z,100.00
2022-08-24T02:05:33.620Z,100.00
2022-08-24T02:08:40.087Z,100.00
2022-08-24T02:11:49.799Z,100.00
2022-08-24T02:14:56.101Z,100.00
2022-08-24T02:18:02.421Z,100.00
2022-08-24T02:21:09.058Z,100.00
2022-08-24T02:24:16.736Z,100.00
2022-08-24T02:27:24.966Z,100.00
2022-08-24T02:30:32.947Z,100.00
2022-08-24T02:33:40.366Z,100.00
2022-08-24T02:36:47.491Z,100.00
2022-08-24T02:39:54.228Z,100.00
2022-08-24T02:43:02.048Z,100.00
2022-08-24T02:46:13.755Z,100.00
2022-08-24T02:49:21.527Z,100.00
2022-08-24T02:52:28.055Z,100.00
2022-08-24T02:55:34.628Z,100.00
2022-08-24T02:58:43.547Z,100.00
2022-08-24T03:01:50.359Z,100.00
2022-08-24T03:04:57.258Z,100.00
2022-08-24T03:08:03.834Z,100.00
2022-08-24T03:11:10.446Z,100.00
2022-08-24T03:14:18.454Z,100.00
2022-08-24T03:17:25.199Z,100.00
2022-08-24T03:20:31.695Z,100.00
2022-08-24T03:23:38.102Z,100.00
2022-08-24T03:26:44.698Z,100.00
2022-08-24T03:29:52.706Z,100.00
2022-08-24T03:33:02.463Z,100.00
2022-08-24T03:36:12.445Z,100.00
2022-08-24T03:39:20.768Z,100.00
2022-08-24T03:42:27.243Z,100.00
2022-08-24T03:45:35.187Z,100.00
2022-08-24T03:48:42.606Z,100.00
2022-08-24T03:51:49.877Z,100.00
2022-08-24T03:54:56.930Z,100.00
2022-08-24T03:58:03.387Z,100.00
2022-08-24T04:01:11.515Z,100.00
2022-08-24T04:04:18.438Z,100.00
2022-08-24T04:07:24.797Z,100.00
2022-08-24T04:10:31.074Z,100.00
2022-08-24T04:13:37.384Z,100.00
2022-08-24T04:16:46.120Z,100.00
2022-08-24T04:19:59.663Z,100.00
2022-08-24T04:23:06.477Z,100.00
2022-08-24T04:26:12.848Z,100.00
2022-08-24T04:29:20.983Z,100.00
2022-08-24T04:32:29.234Z,100.00
2022-08-24T04:35:39.598Z,100.00
2022-08-24T04:38:46.939Z,100.00
2022-08-24T04:41:53.222Z,100.00
2022-08-24T04:44:59.643Z,100.00
2022-08-24T04:48:07.972Z,100.00
2022-08-24T04:51:17.659Z,100.00
2022-08-24T04:54:27.485Z,100.00
2022-08-24T04:57:35.372Z,100.00
2022-08-24T05:00:42.639Z,100.00
2022-08-24T05:03:54.215Z,100.00
2022-08-24T05:07:00.349Z,100.00
2022-08-24T05:10:08.916Z,100.00
2022-08-24T05:13:16.233Z,100.00
2022-08-24T05:16:23.983Z,100.00
2022-08-24T05:19:33.187Z,100.00
2022-08-24T05:22:39.860Z,100.00
2022-08-24T05:25:46.113Z,100.00
2022-08-24T05:28:55.439Z,100.00
2022-08-24T05:32:02.379Z,100.00
2022-08-24T05:35:12.686Z,100.00
2022-08-24T05:38:19.546Z,100.00
2022-08-24T05:41:26.220Z,100.00
2022-08-24T05:44:32.357Z,100.00
2022-08-24T05:47:38.652Z,100.00
2022-08-24T05:50:53.353Z,100.00
2022-08-24T05:54:00.819Z,100.00
2022-08-24T05:57:07.615Z,100.00
2022-08-24T06:00:15.136Z,100.00
2022-08-24T06:03:21.819Z,100.00
2022-08-24T06:06:29.961Z,100.00
2022-08-24T06:09:36.427Z,100.00
2022-08-24T06:12:42.626Z,100.00
2022-08-24T06:16:10.917Z,100.00
2022-08-24T06:19:19.338Z,100.00
2022-08-24T06:22:27.337Z,100.00
2022-08-24T06:25:51.309Z,100.00
2022-08-24T06:28:58.404Z,100.00
2022-08-24T06:32:05.110Z,100.00
2022-08-24T06:35:11.587Z,100.00
2022-08-24T06:38:20.475Z,97.03
2022-08-24T06:41:26.953Z,98.40
2022-08-24T06:44:36.111Z,94.74
2022-08-24T06:47:43.368Z,91.41
2022-08-24T06:50:49.932Z,91.03
2022-08-24T06:53:58.235Z,91.42
2022-08-24T06:57:04.969Z,90.52
2022-08-24T07:00:12.698Z,89.77
2022-08-24T07:03:20.474Z,88.02
2022-08-24T07:06:27.548Z,90.03
2022-08-24T07:09:35.660Z,88.25
2022-08-24T07:12:42.103Z,86.42
2022-08-24T07:15:49.637Z,83.44
2022-08-24T07:18:56.283Z,82.26
2022-08-24T07:22:02.721Z,84.12
2022-08-24T07:25:12.270Z,91.95
2022-08-24T07:28:19.050Z,87.54
2022-08-24T07:31:40.436Z,90.63
2022-08-24T07:34:46.922Z,86.83
2022-08-24T07:37:54.050Z,85.86
2022-08-24T07:41:26.493Z,79.19
2022-08-24T07:44:29.086Z,74.48
2022-08-24T07:47:43.082Z,73.17
2022-08-24T07:50:50.935Z,74.65
2022-08-24T07:53:57.027Z,75.80
2022-08-24T07:57:06.693Z,72.24
2022-08-24T08:00:16.076Z,70.29
2022-08-24T08:03:23.603Z,72.16
2022-08-24T08:06:29.864Z,71.38
2022-08-24T08:09:38.311Z,71.09
2022-08-24T08:12:46.132Z,70.13
2022-08-24T08:15:53.866Z,65.35
2022-08-24T08:19:09.855Z,64.55
2022-08-24T08:22:34.066Z,66.50
2022-08-24T08:25:42.500Z,65.00
2022-08-24T08:28:53.213Z,61.48
2022-08-24T08:31:59.459Z,61.30
2022-08-24T08:35:06.710Z,59.41
2022-08-24T08:38:13.183Z,59.59
2022-08-24T08:41:49.757Z,60.62
2022-08-24T08:45:18.856Z,59.64
2022-08-24T08:49:08.587Z,60.54
2022-08-24T08:52:34.427Z,61.41
2022-08-24T08:55:47.152Z,63.82
2022-08-24T08:59:03.503Z,60.72
2022-08-24T09:02:30.352Z,63.06
2022-08-24T09:06:00.309Z,62.22
2022-08-24T09:09:29.697Z,60.07
2022-08-24T09:12:52.526Z,58.18
2022-08-24T09:16:12.777Z,59.56
2022-08-24T09:19:35.455Z,64.98
2022-08-24T09:22:47.347Z,58.95
2022-08-24T09:26:03.731Z,61.61
2022-08-24T09:29:15.208Z,57.12
2022-08-24T09:32:36.243Z,59.61
2022-08-24T09:36:08.388Z,56.14
2022-08-24T09:39:36.858Z,60.93
2022-08-24T09:43:21.687Z,67.18
2022-08-24T09:47:10.448Z,60.16
2022-08-24T09:51:12.158Z,60.19
2022-08-24T09:54:50.776Z,59.49
2022-08-24T09:58:12.118Z,70.06
2022-08-24T10:01:29.624Z,71.03
2022-08-24T10:04:44.386Z,72.83
2022-08-24T10:08:05.249Z,72.83
2022-08-24T10:11:21.890Z,70.01
2022-08-24T10:14:46.770Z,69.95
2022-08-24T10:18:09.822Z,65.15
2022-08-24T10:21:35.220Z,68.52
2022-08-24T10:24:56.601Z,69.62
2022-08-24T10:28:20.776Z,62.28
2022-08-24T10:31:35.628Z,64.34
2022-08-24T10:34:58.734Z,62.53
2022-08-24T10:38:44.431Z,57.83
2022-08-24T10:42:43.484Z,55.47
2022-08-24T10:46:17.354Z,56.48
2022-08-24T10:50:14.357Z,53.49
2022-08-24T10:53:28.972Z,54.12
2022-08-24T10:56:44.632Z,54.62
2022-08-24T11:00:01.334Z,53.11
2022-08-24T11:03:11.323Z,50.86
2022-08-24T11:06:19.439Z,51.53
2022-08-24T11:09:26.407Z,53.49
2022-08-24T11:12:36.647Z,52.10
2022-08-24T11:15:51.628Z,50.64
2022-08-24T11:19:00.423Z,51.78
2022-08-24T11:22:22.802Z,50.99
2022-08-24T11:25:32.625Z,47.88
2022-08-24T11:28:41.574Z,52.84
2022-08-24T11:31:52.831Z,52.80
2022-08-24T11:35:03.367Z,50.47
2022-08-24T11:38:16.379Z,50.92
2022-08-24T11:41:28.064Z,50.05
2022-08-24T11:44:44.651Z,49.14
2022-08-24T11:48:05.468Z,47.46
2022-08-24T11:51:19.159Z,50.02
2022-08-24T11:54:38.181Z,49.23
2022-08-24T11:57:53.051Z,49.72
2022-08-24T12:01:06.575Z,49.16
2022-08-24T12:04:31.750Z,49.48
2022-08-24T12:07:52.775Z,49.20
2022-08-24T12:11:05.691Z,48.12
2022-08-24T12:14:22.068Z,49.90
2022-08-24T12:17:35.644Z,50.47
2022-08-24T12:20:48.275Z,49.57
2022-08-24T12:24:03.238Z,47.50
2022-08-24T12:27:14.501Z,47.06
2022-08-24T12:30:21.104Z,48.96
2022-08-24T12:33:32.825Z,48.51
2022-08-24T12:36:55.515Z,46.70
2022-08-24T12:40:11.258Z,46.65
2022-08-24T12:43:24.549Z,45.86
2022-08-24T12:46:31.419Z,45.38
2022-08-24T12:49:45.219Z,53.56
2022-08-24T12:53:24.804Z,47.67
2022-08-24T12:56:53.916Z,46.71
2022-08-24T13:00:05.775Z,44.67
2022-08-24T13:03:33.487Z,46.26
2022-08-24T13:06:43.927Z,47.11
2022-08-24T13:10:09.803Z,48.36
2022-08-24T13:13:22.280Z,49.81
2022-08-24T13:16:51.479Z,51.92
2022-08-24T13:20:23.616Z,56.67
2022-08-24T13:23:30.083Z,57.59
2022-08-24T13:26:38.038Z,85.96
2022-08-24T13:29:48.993Z,81.87
2022-08-24T13:33:05.637Z,100.00
2022-08-24T13:36:48.538Z,100.00
2022-08-24T13:40:17.767Z,100.00
2022-08-24T13:43:31.891Z,100.00
2022-08-24T13:46:49.355Z,100.00
2022-08-24T13:50:08.615Z,100.00
2022-08-24T13:53:35.096Z,100.00
2022-08-24T13:57:02.226Z,100.00
2022-08-24T14:00:41.513Z,100.00
2022-08-24T14:04:17.670Z,100.00
2022-08-24T14:07:29.286Z,100.00
2022-08-24T14:10:45.499Z,100.00
2022-08-24T14:14:05.499Z,100.00
2022-08-24T14:17:41.424Z,100.00
2022-08-24T14:21:03.282Z,100.00
2022-08-24T14:24:14.743Z,100.00
2022-08-24T14:27:46.436Z,100.00
2022-08-24T14:31:17.383Z,100.00
2022-08-24T14:34:33.197Z,100.00
2022-08-24T14:37:56.626Z,100.00
2022-08-24T14:41:25.752Z,100.00
2022-08-24T14:44:56.696Z,100.00
2022-08-24T14:48:13.521Z,100.00
2022-08-24T14:51:39.494Z,100.00
2022-08-24T14:54:57.282Z,100.00
2022-08-24T14:58:19.307Z,100.00
2022-08-24T15:01:43.122Z,100.00
2022-08-24T15:04:53.599Z,100.00
2022-08-24T15:08:03.831Z,100.00
2022-08-24T15:11:13.824Z,100.00
2022-08-24T15:14:37.241Z,100.00
2022-08-24T15:17:54.487Z,100.00
2022-08-24T15:21:33.459Z,100.00
2022-08-24T15:24:47.094Z,100.00
2022-08-24T15:27:56.964Z,100.00
2022-08-24T15:31:08.106Z,100.00
2022-08-24T15:34:14.406Z,100.00
2022-08-24T15:37:30.717Z,100.00
2022-08-24T15:40:38.781Z,100.00
2022-08-24T15:43:59.862Z,100.00
2022-08-24T15:47:16.441Z,100.00
2022-08-24T15:50:26.016Z,100.00
2022-08-24T15:53:41.201Z,100.00
2022-08-24T15:56:51.663Z,100.00
2022-08-24T16:00:09.176Z,100.00
2022-08-24T16:03:22.065Z,100.00
2022-08-24T16:06:39.535Z,100.00
2022-08-24T16:09:46.398Z,100.00
2022-08-24T16:12:55.113Z,100.00
2022-08-24T16:16:05.228Z,100.00
2022-08-24T16:19:23.224Z,100.00
2022-08-24T16:22:34.399Z,100.00
2022-08-24T16:25:45.294Z,100.00
2022-08-24T16:28:57.057Z,100.00
2022-08-24T16:32:10.495Z,100.00
2022-08-24T16:35:27.804Z,100.00
2022-08-24T16:38:35.837Z,100.00
2022-08-24T16:41:43.557Z,100.00
2022-08-24T16:44:52.351Z,100.00
2022-08-24T16:47:58.775Z,100.00
2022-08-24T16:51:05.059Z,100.00
2022-08-24T16:54:11.979Z,100.00
2022-08-24T16:57:21.171Z,100.00
2022-08-24T17:00:29.336Z,100.00
2022-08-24T17:03:35.616Z,100.00
2022-08-24T17:06:42.397Z,100.00
2022-08-24T17:09:50.055Z,100.00
2022-08-24T17:12:56.504Z,100.00
2022-08-24T17:16:05.085Z,100.00
2022-08-24T17:19:16.418Z,100.00
2022-08-24T17:22:25.015Z,100.00
2022-08-24T17:25:31.956Z,100.00
2022-08-24T17:28:43.523Z,100.00
2022-08-24T17:31:52.291Z,100.00
2022-08-24T17:34:59.041Z,100.00
2022-08-24T17:38:06.040Z,100.00
2022-08-24T17:41:12.769Z,100.00
2022-08-24T17:44:26.079Z,100.00
2022-08-24T17:47:34.809Z,100.00
2022-08-24T17:50:41.588Z,100.00
2022-08-24T17:53:48.259Z,100.00
2022-08-24T17:56:55.129Z,100.00
2022-08-24T18:00:01.361Z,100.00
2022-08-24T18:03:12.303Z,100.00
2022-08-24T18:06:23.430Z,100.00
2022-08-24T18:09:35.100Z,100.00
2022-08-24T18:12:43.663Z,100.00
2022-08-24T18:15:50.296Z,100.00
2022-08-24T18:18:58.551Z,100.00
2022-08-24T18:22:06.265Z,100.00
2022-08-24T18:25:13.723Z,100.00
2022-08-24T18:28:23.969Z,100.00
2022-08-24T18:31:30.677Z,100.00
2022-08-24T18:34:39.484Z,100.00
2022-08-24T18:37:45.918Z,100.00
2022-08-24T18:40:53.204Z,100.00
2022-08-24T18:44:00.257Z,100.00
2022-08-24T18:47:07.275Z,100.00
2022-08-24T18:50:15.164Z,100.00
2022-08-24T18:53:23.360Z,100.00
2022-08-24T18:56:29.819Z,100.00
2022-08-24T18:59:40.608Z,100.00
2022-08-24T19:02:47.706Z,100.00
2022-08-24T19:05:55.902Z,100.00
2022-08-24T19:09:02.576Z,100.00
2022-08-24T19:12:09.869Z,100.00
2022-08-24T19:15:29.394Z,100.00
2022-08-24T19:18:43.962Z,100.00
2022-08-24T19:21:51.843Z,100.00
2022-08-24T19:24:59.462Z,100.00
2022-08-24T19:28:06.248Z,100.00
2022-08-24T19:31:14.831Z,100.00
2022-08-24T19:34:21.543Z,100.00
2022-08-24T19:37:29.574Z,100.00
2022-08-24T19:40:35.940Z,100.00
2022-08-24T19:44:06.693Z,100.00
2022-08-24T19:47:13.102Z,100.00
2022-08-24T19:50:21.277Z,100.00
2022-08-24T19:53:31.772Z,100.00
2022-08-24T19:56:38.613Z,100.00
2022-08-24T19:59:45.594Z,100.00
2022-08-24T20:02:53.813Z,100.00
2022-08-24T20:06:00.120Z,100.00
2022-08-24T20:09:09.891Z,100.00
2022-08-24T20:12:16.331Z,100.00
2022-08-24T20:15:22.727Z,100.00
2022-08-24T20:18:32.304Z,100.00
2022-08-24T20:21:38.953Z,100.00
2022-08-24T20:24:46.887Z,100.00
2022-08-24T20:28:06.857Z,100.00
2022-08-24T20:31:28.208Z,100.00
2022-08-24T20:34:35.031Z,100.00
2022-08-24T20:37:43.463Z,100.00
2022-08-24T20:40:51.511Z,100.00
2022-08-24T20:43:58.271Z,100.00
2022-08-24T20:47:05.032Z,100.00
2022-08-24T20:50:11.850Z,100.00
2022-08-24T20:53:18.699Z,100.00
2022-08-24T20:56:31.381Z,100.00
2022-08-24T20:59:37.968Z,100.00
2022-08-24T21:02:44.523Z,100.00
2022-08-24T21:05:52.587Z,100.00
2022-08-24T21:08:59.070Z,100.00
2022-08-24T21:12:07.304Z,100.00
2022-08-24T21:15:14.647Z,100.00
2022-08-24T21:18:21.555Z,100.00
2022-08-24T21:21:28.049Z,100.00
2022-08-24T21:24:35.520Z,100.00
2022-08-24T21:27:46.406Z,100.00
2022-08-24T21:30:53.093Z,100.00
2022-08-24T21:34:16.890Z,100.00
2022-08-24T21:37:24.594Z,100.00
2022-08-24T21:40:32.981Z,100.00
2022-08-24T21:43:41.062Z,100.00
2022-08-24T21:46:49.692Z,100.00
2022-08-24T21:49:56.059Z,100.00
2022-08-24T21:53:02.543Z,100.00
2022-08-24T21:56:09.723Z,100.00
2022-08-24T21:59:17.895Z,100.00
2022-08-24T22:02:25.698Z,100.00
2022-08-24T22:05:32.919Z,100.00
2022-08-24T22:08:41.828Z,100.00
2022-08-24T22:11:48.194Z,100.00
2022-08-24T22:14:56.479Z,100.00
2022-08-24T22:18:03.141Z,100.00
2022-08-24T22:21:13.473Z,100.00
2022-08-24T22:24:19.852Z,100.00
2022-08-24T22:27:26.496Z,100.00
2022-08-24T22:30:35.367Z,100.00
2022-08-24T22:33:41.855Z,100.00
2022-08-24T22:36:48.847Z,100.00
2022-08-24T22:39:55.480Z,100.00
2022-08-24T22:43:01.808Z,100.00
2022-08-24T22:46:09.876Z,100.00
2022-08-24T22:49:16.647Z,100.00
2022-08-24T22:52:23.214Z,100.00
2022-08-24T22:55:32.521Z,100.00
2022-08-24T22:58:39.224Z,100.00
2022-08-24T23:01:49.506Z,100.00
2022-08-24T23:04:55.864Z,100.00
2022-08-24T23:08:02.383Z,100.00
2022-08-24T23:11:08.629Z,100.00
2022-08-24T23:14:16.354Z,100.00
2022-08-24T23:17:24.431Z,100.00
2022-08-24T23:20:29.934Z,100.00
2022-08-24T23:23:36.411Z,100.00
2022-08-24T23:26:44.443Z,100.00
2022-08-24T23:29:51.116Z,100.00
2022-08-24T23:32:59.087Z,100.00
2022-08-24T23:36:09.339Z,100.00
2022-08-24T23:39:15.889Z,100.00
2022-08-24T23:42:21.947Z,100.00
2022-08-24T23:45:30.505Z,100.00
2022-08-24T23:48:40.592Z,100.00
2022-08-24T23:51:47.239Z,100.00
2022-08-24T23:54:53.659Z,100.00
2022-08-24T23:58:00.275Z,100.00
